sensor_id;sensor_type;location;lat;lon;timestamp;P1;durP1;ratioP1;P2;durP2;ratioP2
83688;SDS011;74527;43.224;0.108;2024-03-22T00:01:50;130.57;;;84.50;;
83688;SDS011;74527;43.224;0.108;2024-03-22T00:04:17;130.43;;;87.93;;
83688;SDS011;74527;43.224;0.108;2024-03-22T00:06:43;125.13;;;87.45;;
83688;SDS011;74527;43.224;0.108;2024-03-22T00:09:12;108.68;;;72.15;;
83688;SDS011;74527;43.224;0.108;2024-03-22T00:11:39;95.28;;;65.50;;
83688;SDS011;74527;43.224;0.108;2024-03-22T00:14:05;113.68;;;71.47;;
83688;SDS011;74527;43.224;0.108;2024-03-22T00:16:32;91.20;;;54.80;;
83688;SDS011;74527;43.224;0.108;2024-03-22T00:18:58;83.88;;;49.35;;
83688;SDS011;74527;43.224;0.108;2024-03-22T00:21:24;67.93;;;44.40;;
83688;SDS011;74527;43.224;0.108;2024-03-22T00:23:50;72.13;;;41.25;;
83688;SDS011;74527;43.224;0.108;2024-03-22T00:26:16;60.28;;;32.88;;
83688;SDS011;74527;43.224;0.108;2024-03-22T00:28:42;53.80;;;36.08;;
83688;SDS011;74527;43.224;0.108;2024-03-22T00:31:08;52.92;;;31.70;;
83688;SDS011;74527;43.224;0.108;2024-03-22T00:33:35;61.13;;;29.30;;
83688;SDS011;74527;43.224;0.108;2024-03-22T00:36:01;43.65;;;24.67;;
83688;SDS011;74527;43.224;0.108;2024-03-22T00:38:27;47.75;;;23.25;;
83688;SDS011;74527;43.224;0.108;2024-03-22T00:40:53;39.35;;;22.63;;
83688;SDS011;74527;43.224;0.108;2024-03-22T00:43:20;39.28;;;20.38;;
83688;SDS011;74527;43.224;0.108;2024-03-22T00:45:46;32.83;;;20.15;;
83688;SDS011;74527;43.224;0.108;2024-03-22T00:48:12;31.58;;;16.60;;
83688;SDS011;74527;43.224;0.108;2024-03-22T00:50:38;28.70;;;16.45;;
83688;SDS011;74527;43.224;0.108;2024-03-22T00:53:04;30.30;;;14.00;;
83688;SDS011;74527;43.224;0.108;2024-03-22T00:55:32;30.92;;;12.00;;
83688;SDS011;74527;43.224;0.108;2024-03-22T00:57:58;28.15;;;11.98;;
83688;SDS011;74527;43.224;0.108;2024-03-22T01:00:24;26.73;;;11.90;;
83688;SDS011;74527;43.224;0.108;2024-03-22T01:02:51;24.17;;;11.52;;
83688;SDS011;74527;43.224;0.108;2024-03-22T01:05:17;23.05;;;10.93;;
83688;SDS011;74527;43.224;0.108;2024-03-22T01:07:43;27.13;;;10.98;;
83688;SDS011;74527;43.224;0.108;2024-03-22T01:10:10;26.40;;;11.60;;
83688;SDS011;74527;43.224;0.108;2024-03-22T01:12:36;25.80;;;10.73;;
83688;SDS011;74527;43.224;0.108;2024-03-22T01:15:02;22.50;;;10.57;;
83688;SDS011;74527;43.224;0.108;2024-03-22T01:17:28;30.70;;;11.30;;
83688;SDS011;74527;43.224;0.108;2024-03-22T01:19:54;24.20;;;11.32;;
83688;SDS011;74527;43.224;0.108;2024-03-22T01:22:20;28.77;;;11.05;;
83688;SDS011;74527;43.224;0.108;2024-03-22T01:24:46;26.42;;;10.77;;
83688;SDS011;74527;43.224;0.108;2024-03-22T01:27:12;29.95;;;11.57;;
83688;SDS011;74527;43.224;0.108;2024-03-22T01:29:38;24.52;;;11.18;;
83688;SDS011;74527;43.224;0.108;2024-03-22T01:32:04;24.83;;;11.00;;
83688;SDS011;74527;43.224;0.108;2024-03-22T01:34:31;36.50;;;11.60;;
83688;SDS011;74527;43.224;0.108;2024-03-22T01:36:57;28.15;;;10.10;;
83688;SDS011;74527;43.224;0.108;2024-03-22T01:39:23;28.58;;;11.75;;
83688;SDS011;74527;43.224;0.108;2024-03-22T01:41:50;38.50;;;11.38;;
83688;SDS011;74527;43.224;0.108;2024-03-22T01:44:16;27.17;;;10.55;;
83688;SDS011;74527;43.224;0.108;2024-03-22T01:46:43;26.05;;;10.30;;
83688;SDS011;74527;43.224;0.108;2024-03-22T01:49:09;24.15;;;11.10;;
83688;SDS011;74527;43.224;0.108;2024-03-22T01:51:39;32.33;;;12.18;;
83688;SDS011;74527;43.224;0.108;2024-03-22T01:54:05;28.02;;;10.63;;
83688;SDS011;74527;43.224;0.108;2024-03-22T01:56:34;24.10;;;9.93;;
83688;SDS011;74527;43.224;0.108;2024-03-22T01:59:00;24.00;;;10.98;;
83688;SDS011;74527;43.224;0.108;2024-03-22T02:01:27;29.90;;;10.50;;
83688;SDS011;74527;43.224;0.108;2024-03-22T02:03:53;29.83;;;11.10;;
83688;SDS011;74527;43.224;0.108;2024-03-22T02:06:19;30.65;;;10.70;;
83688;SDS011;74527;43.224;0.108;2024-03-22T02:08:45;27.17;;;11.27;;
83688;SDS011;74527;43.224;0.108;2024-03-22T02:11:11;27.98;;;10.68;;
83688;SDS011;74527;43.224;0.108;2024-03-22T02:13:37;28.30;;;10.77;;
83688;SDS011;74527;43.224;0.108;2024-03-22T02:16:03;34.35;;;11.68;;
83688;SDS011;74527;43.224;0.108;2024-03-22T02:18:29;30.48;;;10.70;;
83688;SDS011;74527;43.224;0.108;2024-03-22T02:20:56;20.95;;;10.07;;
83688;SDS011;74527;43.224;0.108;2024-03-22T02:25:55;33.47;;;10.18;;
83688;SDS011;74527;43.224;0.108;2024-03-22T02:28:21;40.83;;;11.25;;
83688;SDS011;74527;43.224;0.108;2024-03-22T02:30:47;31.50;;;11.30;;
83688;SDS011;74527;43.224;0.108;2024-03-22T02:33:13;40.55;;;13.10;;
83688;SDS011;74527;43.224;0.108;2024-03-22T02:35:39;37.60;;;11.02;;
83688;SDS011;74527;43.224;0.108;2024-03-22T02:38:05;25.55;;;10.13;;
83688;SDS011;74527;43.224;0.108;2024-03-22T02:40:31;32.50;;;11.60;;
83688;SDS011;74527;43.224;0.108;2024-03-22T02:42:57;32.05;;;11.40;;
83688;SDS011;74527;43.224;0.108;2024-03-22T02:45:23;34.90;;;10.85;;
83688;SDS011;74527;43.224;0.108;2024-03-22T02:47:49;23.58;;;11.15;;
83688;SDS011;74527;43.224;0.108;2024-03-22T02:50:15;26.10;;;12.13;;
83688;SDS011;74527;43.224;0.108;2024-03-22T02:52:41;28.80;;;11.85;;
83688;SDS011;74527;43.224;0.108;2024-03-22T02:55:07;27.73;;;10.32;;
83688;SDS011;74527;43.224;0.108;2024-03-22T02:57:33;30.90;;;11.45;;
83688;SDS011;74527;43.224;0.108;2024-03-22T02:59:59;38.05;;;11.63;;
83688;SDS011;74527;43.224;0.108;2024-03-22T03:02:26;27.75;;;10.95;;
83688;SDS011;74527;43.224;0.108;2024-03-22T03:04:52;29.52;;;12.05;;
83688;SDS011;74527;43.224;0.108;2024-03-22T03:07:18;34.13;;;11.38;;
83688;SDS011;74527;43.224;0.108;2024-03-22T03:09:44;31.45;;;11.95;;
83688;SDS011;74527;43.224;0.108;2024-03-22T03:12:10;36.15;;;11.23;;
83688;SDS011;74527;43.224;0.108;2024-03-22T03:14:36;32.30;;;11.68;;
83688;SDS011;74527;43.224;0.108;2024-03-22T03:17:02;33.38;;;11.75;;
83688;SDS011;74527;43.224;0.108;2024-03-22T03:19:28;36.65;;;12.15;;
83688;SDS011;74527;43.224;0.108;2024-03-22T03:21:54;29.13;;;13.23;;
83688;SDS011;74527;43.224;0.108;2024-03-22T03:24:20;34.88;;;12.00;;
83688;SDS011;74527;43.224;0.108;2024-03-22T03:26:46;35.17;;;12.52;;
83688;SDS011;74527;43.224;0.108;2024-03-22T03:29:12;37.53;;;13.18;;
83688;SDS011;74527;43.224;0.108;2024-03-22T03:31:38;32.50;;;11.95;;
83688;SDS011;74527;43.224;0.108;2024-03-22T03:34:04;31.00;;;13.25;;
83688;SDS011;74527;43.224;0.108;2024-03-22T03:36:30;36.63;;;13.82;;
83688;SDS011;74527;43.224;0.108;2024-03-22T03:38:56;31.42;;;13.25;;
83688;SDS011;74527;43.224;0.108;2024-03-22T03:41:22;43.17;;;12.85;;
83688;SDS011;74527;43.224;0.108;2024-03-22T03:43:48;31.55;;;12.93;;
83688;SDS011;74527;43.224;0.108;2024-03-22T03:46:14;35.30;;;12.90;;
83688;SDS011;74527;43.224;0.108;2024-03-22T03:48:40;32.78;;;12.80;;
83688;SDS011;74527;43.224;0.108;2024-03-22T03:51:06;27.63;;;11.48;;
83688;SDS011;74527;43.224;0.108;2024-03-22T03:53:33;33.00;;;12.88;;
83688;SDS011;74527;43.224;0.108;2024-03-22T03:55:59;31.08;;;12.40;;
83688;SDS011;74527;43.224;0.108;2024-03-22T03:58:25;31.00;;;12.27;;
83688;SDS011;74527;43.224;0.108;2024-03-22T04:00:51;33.42;;;12.30;;
83688;SDS011;74527;43.224;0.108;2024-03-22T04:03:17;42.60;;;13.40;;
83688;SDS011;74527;43.224;0.108;2024-03-22T04:05:44;36.17;;;12.13;;
83688;SDS011;74527;43.224;0.108;2024-03-22T04:08:10;41.08;;;12.98;;
83688;SDS011;74527;43.224;0.108;2024-03-22T04:10:36;45.67;;;12.90;;
83688;SDS011;74527;43.224;0.108;2024-03-22T04:13:02;35.42;;;14.57;;
83688;SDS011;74527;43.224;0.108;2024-03-22T04:15:28;44.58;;;12.68;;
83688;SDS011;74527;43.224;0.108;2024-03-22T04:17:56;37.88;;;13.38;;
83688;SDS011;74527;43.224;0.108;2024-03-22T04:20:22;31.55;;;12.38;;
83688;SDS011;74527;43.224;0.108;2024-03-22T04:22:48;32.80;;;11.55;;
83688;SDS011;74527;43.224;0.108;2024-03-22T04:25:17;42.13;;;12.98;;
83688;SDS011;74527;43.224;0.108;2024-03-22T04:27:43;38.70;;;13.20;;
83688;SDS011;74527;43.224;0.108;2024-03-22T04:30:09;33.13;;;13.23;;
83688;SDS011;74527;43.224;0.108;2024-03-22T04:32:35;43.38;;;13.43;;
83688;SDS011;74527;43.224;0.108;2024-03-22T04:35:02;49.42;;;13.43;;
83688;SDS011;74527;43.224;0.108;2024-03-22T04:37:28;36.75;;;12.77;;
83688;SDS011;74527;43.224;0.108;2024-03-22T04:39:54;33.08;;;13.00;;
83688;SDS011;74527;43.224;0.108;2024-03-22T04:42:20;37.88;;;12.18;;
83688;SDS011;74527;43.224;0.108;2024-03-22T04:44:46;33.55;;;12.20;;
83688;SDS011;74527;43.224;0.108;2024-03-22T04:47:12;34.03;;;13.27;;
83688;SDS011;74527;43.224;0.108;2024-03-22T04:49:38;30.48;;;13.38;;
83688;SDS011;74527;43.224;0.108;2024-03-22T04:52:04;44.65;;;12.27;;
83688;SDS011;74527;43.224;0.108;2024-03-22T04:54:30;32.63;;;12.88;;
83688;SDS011;74527;43.224;0.108;2024-03-22T04:56:56;41.10;;;12.40;;
83688;SDS011;74527;43.224;0.108;2024-03-22T04:59:22;33.53;;;14.18;;
83688;SDS011;74527;43.224;0.108;2024-03-22T05:01:48;40.10;;;13.35;;
83688;SDS011;74527;43.224;0.108;2024-03-22T05:04:14;31.58;;;13.00;;
83688;SDS011;74527;43.224;0.108;2024-03-22T05:06:40;41.88;;;12.10;;
83688;SDS011;74527;43.224;0.108;2024-03-22T05:09:06;38.22;;;12.70;;
83688;SDS011;74527;43.224;0.108;2024-03-22T05:14:01;38.00;;;15.35;;
83688;SDS011;74527;43.224;0.108;2024-03-22T05:16:27;43.40;;;14.10;;
83688;SDS011;74527;43.224;0.108;2024-03-22T05:18:53;36.90;;;12.55;;
83688;SDS011;74527;43.224;0.108;2024-03-22T05:21:19;44.17;;;15.60;;
83688;SDS011;74527;43.224;0.108;2024-03-22T05:23:45;38.67;;;13.77;;
83688;SDS011;74527;43.224;0.108;2024-03-22T05:26:11;49.75;;;13.45;;
83688;SDS011;74527;43.224;0.108;2024-03-22T05:28:37;36.97;;;13.23;;
83688;SDS011;74527;43.224;0.108;2024-03-22T05:31:03;41.88;;;13.18;;
83688;SDS011;74527;43.224;0.108;2024-03-22T05:33:29;42.47;;;12.68;;
83688;SDS011;74527;43.224;0.108;2024-03-22T05:35:56;37.88;;;12.88;;
83688;SDS011;74527;43.224;0.108;2024-03-22T05:38:22;32.22;;;12.43;;
83688;SDS011;74527;43.224;0.108;2024-03-22T05:40:48;31.65;;;12.55;;
83688;SDS011;74527;43.224;0.108;2024-03-22T05:43:14;34.10;;;12.10;;
83688;SDS011;74527;43.224;0.108;2024-03-22T05:45:40;43.08;;;12.63;;
83688;SDS011;74527;43.224;0.108;2024-03-22T05:48:06;35.78;;;12.65;;
83688;SDS011;74527;43.224;0.108;2024-03-22T05:50:33;42.53;;;12.30;;
83688;SDS011;74527;43.224;0.108;2024-03-22T05:52:59;39.90;;;11.20;;
83688;SDS011;74527;43.224;0.108;2024-03-22T05:55:25;49.92;;;17.55;;
83688;SDS011;74527;43.224;0.108;2024-03-22T05:57:52;42.67;;;11.60;;
83688;SDS011;74527;43.224;0.108;2024-03-22T06:00:19;30.42;;;12.38;;
83688;SDS011;74527;43.224;0.108;2024-03-22T06:02:45;44.13;;;12.93;;
83688;SDS011;74527;43.224;0.108;2024-03-22T06:05:11;38.00;;;11.35;;
83688;SDS011;74527;43.224;0.108;2024-03-22T06:07:37;40.08;;;12.05;;
83688;SDS011;74527;43.224;0.108;2024-03-22T06:10:08;46.47;;;12.52;;
83688;SDS011;74527;43.224;0.108;2024-03-22T06:12:35;40.53;;;12.45;;
83688;SDS011;74527;43.224;0.108;2024-03-22T06:15:01;41.55;;;10.95;;
83688;SDS011;74527;43.224;0.108;2024-03-22T06:17:31;31.83;;;10.23;;
83688;SDS011;74527;43.224;0.108;2024-03-22T06:19:57;26.80;;;11.50;;
83688;SDS011;74527;43.224;0.108;2024-03-22T06:22:24;38.97;;;11.73;;
83688;SDS011;74527;43.224;0.108;2024-03-22T06:24:50;32.72;;;11.43;;
83688;SDS011;74527;43.224;0.108;2024-03-22T06:27:17;27.85;;;10.05;;
83688;SDS011;74527;43.224;0.108;2024-03-22T06:29:43;32.67;;;9.95;;
83688;SDS011;74527;43.224;0.108;2024-03-22T06:32:09;35.95;;;9.52;;
83688;SDS011;74527;43.224;0.108;2024-03-22T06:34:35;34.97;;;9.73;;
83688;SDS011;74527;43.224;0.108;2024-03-22T06:37:01;35.72;;;9.73;;
83688;SDS011;74527;43.224;0.108;2024-03-22T06:39:28;32.60;;;10.82;;
83688;SDS011;74527;43.224;0.108;2024-03-22T06:41:54;31.27;;;9.32;;
83688;SDS011;74527;43.224;0.108;2024-03-22T06:44:20;44.08;;;11.10;;
83688;SDS011;74527;43.224;0.108;2024-03-22T06:46:47;30.30;;;8.63;;
83688;SDS011;74527;43.224;0.108;2024-03-22T06:49:13;29.65;;;10.25;;
83688;SDS011;74527;43.224;0.108;2024-03-22T06:51:39;36.75;;;8.95;;
83688;SDS011;74527;43.224;0.108;2024-03-22T06:54:05;32.08;;;8.45;;
83688;SDS011;74527;43.224;0.108;2024-03-22T06:56:31;28.10;;;9.32;;
83688;SDS011;74527;43.224;0.108;2024-03-22T06:58:57;25.52;;;9.98;;
83688;SDS011;74527;43.224;0.108;2024-03-22T07:01:23;21.40;;;8.73;;
83688;SDS011;74527;43.224;0.108;2024-03-22T07:03:49;27.73;;;9.45;;
83688;SDS011;74527;43.224;0.108;2024-03-22T07:06:15;25.33;;;9.25;;
83688;SDS011;74527;43.224;0.108;2024-03-22T07:08:41;29.73;;;10.30;;
83688;SDS011;74527;43.224;0.108;2024-03-22T07:11:07;34.72;;;9.98;;
83688;SDS011;74527;43.224;0.108;2024-03-22T07:13:33;35.33;;;11.77;;
83688;SDS011;74527;43.224;0.108;2024-03-22T07:16:00;44.30;;;9.43;;
83688;SDS011;74527;43.224;0.108;2024-03-22T07:18:26;27.02;;;9.18;;
83688;SDS011;74527;43.224;0.108;2024-03-22T07:20:52;27.10;;;9.18;;
83688;SDS011;74527;43.224;0.108;2024-03-22T07:23:18;34.65;;;8.35;;
83688;SDS011;74527;43.224;0.108;2024-03-22T07:25:44;31.65;;;10.60;;
83688;SDS011;74527;43.224;0.108;2024-03-22T07:28:13;28.17;;;8.65;;
83688;SDS011;74527;43.224;0.108;2024-03-22T07:30:41;43.72;;;10.38;;
83688;SDS011;74527;43.224;0.108;2024-03-22T07:33:07;37.75;;;10.00;;
83688;SDS011;74527;43.224;0.108;2024-03-22T07:35:36;31.35;;;10.00;;
83688;SDS011;74527;43.224;0.108;2024-03-22T07:38:02;36.00;;;9.63;;
83688;SDS011;74527;43.224;0.108;2024-03-22T07:40:29;34.17;;;8.95;;
83688;SDS011;74527;43.224;0.108;2024-03-22T07:42:55;31.58;;;9.15;;
83688;SDS011;74527;43.224;0.108;2024-03-22T07:45:21;31.05;;;9.25;;
83688;SDS011;74527;43.224;0.108;2024-03-22T07:47:47;41.28;;;8.90;;
83688;SDS011;74527;43.224;0.108;2024-03-22T07:50:13;46.83;;;9.63;;
83688;SDS011;74527;43.224;0.108;2024-03-22T07:52:40;31.98;;;8.07;;
83688;SDS011;74527;43.224;0.108;2024-03-22T07:55:06;29.83;;;9.05;;
83688;SDS011;74527;43.224;0.108;2024-03-22T07:57:32;29.63;;;9.13;;
83688;SDS011;74527;43.224;0.108;2024-03-22T07:59:58;37.53;;;9.55;;
83688;SDS011;74527;43.224;0.108;2024-03-22T08:02:24;35.47;;;10.07;;
83688;SDS011;74527;43.224;0.108;2024-03-22T08:04:50;33.53;;;9.10;;
83688;SDS011;74527;43.224;0.108;2024-03-22T08:07:16;24.67;;;9.10;;
83688;SDS011;74527;43.224;0.108;2024-03-22T08:09:42;24.10;;;7.55;;
83688;SDS011;74527;43.224;0.108;2024-03-22T08:12:08;24.40;;;8.13;;
83688;SDS011;74527;43.224;0.108;2024-03-22T08:14:34;24.55;;;7.75;;
83688;SDS011;74527;43.224;0.108;2024-03-22T08:17:01;46.97;;;10.95;;
83688;SDS011;74527;43.224;0.108;2024-03-22T08:19:28;37.28;;;8.65;;
83688;SDS011;74527;43.224;0.108;2024-03-22T08:21:54;29.63;;;8.68;;
83688;SDS011;74527;43.224;0.108;2024-03-22T08:24:20;29.83;;;8.73;;
83688;SDS011;74527;43.224;0.108;2024-03-22T08:26:46;27.00;;;8.73;;
83688;SDS011;74527;43.224;0.108;2024-03-22T08:29:15;17.00;;;8.13;;
83688;SDS011;74527;43.224;0.108;2024-03-22T08:31:41;28.13;;;8.10;;
83688;SDS011;74527;43.224;0.108;2024-03-22T08:34:08;23.98;;;8.75;;
83688;SDS011;74527;43.224;0.108;2024-03-22T08:36:34;26.90;;;8.00;;
83688;SDS011;74527;43.224;0.108;2024-03-22T08:39:01;24.15;;;8.02;;
83688;SDS011;74527;43.224;0.108;2024-03-22T08:41:27;30.60;;;8.00;;
83688;SDS011;74527;43.224;0.108;2024-03-22T08:43:53;26.30;;;9.15;;
83688;SDS011;74527;43.224;0.108;2024-03-22T08:46:19;25.55;;;8.10;;
83688;SDS011;74527;43.224;0.108;2024-03-22T08:48:46;26.87;;;9.43;;
83688;SDS011;74527;43.224;0.108;2024-03-22T08:51:12;30.42;;;8.75;;
83688;SDS011;74527;43.224;0.108;2024-03-22T08:53:38;29.10;;;9.27;;
83688;SDS011;74527;43.224;0.108;2024-03-22T08:56:05;32.35;;;8.90;;
83688;SDS011;74527;43.224;0.108;2024-03-22T08:58:31;21.42;;;7.47;;
83688;SDS011;74527;43.224;0.108;2024-03-22T09:00:57;32.28;;;8.13;;
83688;SDS011;74527;43.224;0.108;2024-03-22T09:03:23;28.38;;;7.70;;
83688;SDS011;74527;43.224;0.108;2024-03-22T09:05:52;38.75;;;9.77;;
83688;SDS011;74527;43.224;0.108;2024-03-22T09:08:18;27.65;;;8.18;;
83688;SDS011;74527;43.224;0.108;2024-03-22T09:10:44;29.45;;;8.27;;
83688;SDS011;74527;43.224;0.108;2024-03-22T09:13:10;29.27;;;8.82;;
83688;SDS011;74527;43.224;0.108;2024-03-22T09:15:37;27.03;;;8.37;;
83688;SDS011;74527;43.224;0.108;2024-03-22T09:18:04;30.52;;;9.88;;
83688;SDS011;74527;43.224;0.108;2024-03-22T09:20:30;33.95;;;8.25;;
83688;SDS011;74527;43.224;0.108;2024-03-22T09:22:57;27.08;;;8.85;;
83688;SDS011;74527;43.224;0.108;2024-03-22T09:25:23;26.33;;;8.73;;
83688;SDS011;74527;43.224;0.108;2024-03-22T09:27:49;29.30;;;7.38;;
83688;SDS011;74527;43.224;0.108;2024-03-22T09:30:15;28.15;;;7.22;;
83688;SDS011;74527;43.224;0.108;2024-03-22T09:32:41;31.33;;;7.50;;
83688;SDS011;74527;43.224;0.108;2024-03-22T09:35:08;33.15;;;7.25;;
83688;SDS011;74527;43.224;0.108;2024-03-22T09:37:34;28.55;;;7.30;;
83688;SDS011;74527;43.224;0.108;2024-03-22T09:40:00;31.65;;;7.85;;
83688;SDS011;74527;43.224;0.108;2024-03-22T09:42:26;29.15;;;7.13;;
83688;SDS011;74527;43.224;0.108;2024-03-22T09:44:55;32.35;;;7.13;;
83688;SDS011;74527;43.224;0.108;2024-03-22T09:47:21;34.60;;;8.10;;
83688;SDS011;74527;43.224;0.108;2024-03-22T09:49:47;30.50;;;8.05;;
83688;SDS011;74527;43.224;0.108;2024-03-22T09:52:14;35.25;;;7.15;;
83688;SDS011;74527;43.224;0.108;2024-03-22T09:54:42;30.27;;;7.22;;
83688;SDS011;74527;43.224;0.108;2024-03-22T09:57:13;21.10;;;6.18;;
83688;SDS011;74527;43.224;0.108;2024-03-22T09:59:40;30.65;;;7.13;;
83688;SDS011;74527;43.224;0.108;2024-03-22T10:02:07;26.02;;;6.93;;
83688;SDS011;74527;43.224;0.108;2024-03-22T10:04:34;23.35;;;6.82;;
83688;SDS011;74527;43.224;0.108;2024-03-22T10:07:01;29.65;;;6.78;;
83688;SDS011;74527;43.224;0.108;2024-03-22T10:09:28;32.60;;;7.85;;
83688;SDS011;74527;43.224;0.108;2024-03-22T10:11:55;20.40;;;6.23;;
83688;SDS011;74527;43.224;0.108;2024-03-22T10:14:21;30.40;;;7.35;;
83688;SDS011;74527;43.224;0.108;2024-03-22T10:16:50;20.63;;;5.78;;
83688;SDS011;74527;43.224;0.108;2024-03-22T10:19:18;29.77;;;7.03;;
83688;SDS011;74527;43.224;0.108;2024-03-22T10:21:44;35.83;;;8.25;;
83688;SDS011;74527;43.224;0.108;2024-03-22T10:24:10;26.55;;;6.55;;
83688;SDS011;74527;43.224;0.108;2024-03-22T10:26:36;34.28;;;7.07;;
83688;SDS011;74527;43.224;0.108;2024-03-22T10:29:05;27.80;;;7.35;;
83688;SDS011;74527;43.224;0.108;2024-03-22T10:31:33;30.58;;;6.80;;
83688;SDS011;74527;43.224;0.108;2024-03-22T10:34:00;26.75;;;6.13;;
83688;SDS011;74527;43.224;0.108;2024-03-22T10:36:29;28.10;;;6.40;;
83688;SDS011;74527;43.224;0.108;2024-03-22T10:38:56;29.05;;;8.25;;
83688;SDS011;74527;43.224;0.108;2024-03-22T10:41:23;27.92;;;7.13;;
83688;SDS011;74527;43.224;0.108;2024-03-22T10:43:49;30.58;;;7.55;;
83688;SDS011;74527;43.224;0.108;2024-03-22T10:46:15;32.53;;;7.72;;
83688;SDS011;74527;43.224;0.108;2024-03-22T10:48:42;33.33;;;7.30;;
83688;SDS011;74527;43.224;0.108;2024-03-22T10:51:10;28.80;;;6.82;;
83688;SDS011;74527;43.224;0.108;2024-03-22T10:53:36;40.08;;;8.43;;
83688;SDS011;74527;43.224;0.108;2024-03-22T10:56:02;40.72;;;8.48;;
83688;SDS011;74527;43.224;0.108;2024-03-22T10:58:30;24.83;;;7.15;;
83688;SDS011;74527;43.224;0.108;2024-03-22T11:00:56;29.63;;;7.00;;
83688;SDS011;74527;43.224;0.108;2024-03-22T11:03:24;39.90;;;7.95;;
83688;SDS011;74527;43.224;0.108;2024-03-22T11:05:53;35.75;;;6.28;;
83688;SDS011;74527;43.224;0.108;2024-03-22T11:08:26;39.15;;;8.30;;
83688;SDS011;74527;43.224;0.108;2024-03-22T11:10:52;31.45;;;7.88;;
83688;SDS011;74527;43.224;0.108;2024-03-22T11:13:18;33.13;;;7.22;;
83688;SDS011;74527;43.224;0.108;2024-03-22T11:15:48;34.13;;;6.47;;
83688;SDS011;74527;43.224;0.108;2024-03-22T11:18:15;31.27;;;7.25;;
83688;SDS011;74527;43.224;0.108;2024-03-22T11:20:41;33.30;;;7.95;;
83688;SDS011;74527;43.224;0.108;2024-03-22T11:23:07;31.30;;;6.47;;
83688;SDS011;74527;43.224;0.108;2024-03-22T11:25:34;36.05;;;7.13;;
83688;SDS011;74527;43.224;0.108;2024-03-22T11:28:01;40.33;;;7.72;;
83688;SDS011;74527;43.224;0.108;2024-03-22T11:30:30;42.03;;;6.05;;
83688;SDS011;74527;43.224;0.108;2024-03-22T11:32:57;30.27;;;6.55;;
83688;SDS011;74527;43.224;0.108;2024-03-22T11:35:23;38.90;;;7.43;;
83688;SDS011;74527;43.224;0.108;2024-03-22T11:37:49;46.22;;;9.15;;
83688;SDS011;74527;43.224;0.108;2024-03-22T11:40:16;31.20;;;8.85;;
83688;SDS011;74527;43.224;0.108;2024-03-22T11:42:44;25.85;;;6.82;;
83688;SDS011;74527;43.224;0.108;2024-03-22T11:45:11;31.23;;;5.88;;
83688;SDS011;74527;43.224;0.108;2024-03-22T11:47:38;35.92;;;6.90;;
83688;SDS011;74527;43.224;0.108;2024-03-22T11:50:04;20.25;;;6.32;;
83688;SDS011;74527;43.224;0.108;2024-03-22T11:52:31;34.22;;;6.90;;
83688;SDS011;74527;43.224;0.108;2024-03-22T11:54:57;32.65;;;6.90;;
83688;SDS011;74527;43.224;0.108;2024-03-22T11:57:23;38.70;;;9.05;;
83688;SDS011;74527;43.224;0.108;2024-03-22T11:59:50;27.98;;;6.53;;
83688;SDS011;74527;43.224;0.108;2024-03-22T12:02:17;35.58;;;6.50;;
83688;SDS011;74527;43.224;0.108;2024-03-22T12:04:45;34.63;;;6.78;;
83688;SDS011;74527;43.224;0.108;2024-03-22T12:09:37;40.45;;;7.13;;
83688;SDS011;74527;43.224;0.108;2024-03-22T12:12:03;42.15;;;7.70;;
83688;SDS011;74527;43.224;0.108;2024-03-22T12:14:30;34.38;;;5.55;;
83688;SDS011;74527;43.224;0.108;2024-03-22T12:16:56;32.05;;;7.20;;
83688;SDS011;74527;43.224;0.108;2024-03-22T12:19:22;25.05;;;5.25;;
83688;SDS011;74527;43.224;0.108;2024-03-22T12:21:48;31.23;;;5.47;;
83688;SDS011;74527;43.224;0.108;2024-03-22T12:24:14;24.50;;;5.45;;
83688;SDS011;74527;43.224;0.108;2024-03-22T12:26:40;32.25;;;6.32;;
83688;SDS011;74527;43.224;0.108;2024-03-22T12:29:06;33.58;;;6.93;;
83688;SDS011;74527;43.224;0.108;2024-03-22T12:31:32;31.25;;;6.85;;
83688;SDS011;74527;43.224;0.108;2024-03-22T12:33:58;29.30;;;5.10;;
83688;SDS011;74527;43.224;0.108;2024-03-22T12:36:24;25.35;;;4.80;;
83688;SDS011;74527;43.224;0.108;2024-03-22T12:38:50;31.90;;;5.70;;
83688;SDS011;74527;43.224;0.108;2024-03-22T12:41:16;24.77;;;7.32;;
83688;SDS011;74527;43.224;0.108;2024-03-22T12:43:42;34.47;;;6.43;;
83688;SDS011;74527;43.224;0.108;2024-03-22T12:46:08;27.90;;;6.75;;
83688;SDS011;74527;43.224;0.108;2024-03-22T12:48:34;34.00;;;7.07;;
83688;SDS011;74527;43.224;0.108;2024-03-22T12:51:01;27.77;;;4.78;;
83688;SDS011;74527;43.224;0.108;2024-03-22T12:53:27;29.42;;;6.70;;
83688;SDS011;74527;43.224;0.108;2024-03-22T12:55:53;32.35;;;5.95;;
83688;SDS011;74527;43.224;0.108;2024-03-22T12:58:19;37.80;;;7.05;;
83688;SDS011;74527;43.224;0.108;2024-03-22T13:00:46;36.97;;;8.32;;
83688;SDS011;74527;43.224;0.108;2024-03-22T13:03:13;44.27;;;7.63;;
83688;SDS011;74527;43.224;0.108;2024-03-22T13:05:40;31.83;;;7.03;;
83688;SDS011;74527;43.224;0.108;2024-03-22T13:08:06;33.35;;;6.47;;
83688;SDS011;74527;43.224;0.108;2024-03-22T13:10:32;21.00;;;5.35;;
83688;SDS011;74527;43.224;0.108;2024-03-22T13:12:59;26.90;;;6.63;;
83688;SDS011;74527;43.224;0.108;2024-03-22T13:15:25;35.67;;;6.38;;
83688;SDS011;74527;43.224;0.108;2024-03-22T13:17:51;31.83;;;6.75;;
83688;SDS011;74527;43.224;0.108;2024-03-22T13:20:21;35.83;;;7.70;;
83688;SDS011;74527;43.224;0.108;2024-03-22T13:22:47;30.70;;;6.22;;
83688;SDS011;74527;43.224;0.108;2024-03-22T13:25:13;25.60;;;6.80;;
83688;SDS011;74527;43.224;0.108;2024-03-22T13:27:40;27.42;;;5.53;;
83688;SDS011;74527;43.224;0.108;2024-03-22T13:30:06;35.40;;;6.20;;
83688;SDS011;74527;43.224;0.108;2024-03-22T13:32:37;39.10;;;5.82;;
83688;SDS011;74527;43.224;0.108;2024-03-22T13:35:03;22.80;;;5.97;;
83688;SDS011;74527;43.224;0.108;2024-03-22T13:37:29;30.17;;;4.45;;
83688;SDS011;74527;43.224;0.108;2024-03-22T13:39:55;26.02;;;4.88;;
83688;SDS011;74527;43.224;0.108;2024-03-22T13:42:21;33.55;;;7.47;;
83688;SDS011;74527;43.224;0.108;2024-03-22T13:44:47;24.55;;;5.75;;
83688;SDS011;74527;43.224;0.108;2024-03-22T13:47:13;40.22;;;7.43;;
83688;SDS011;74527;43.224;0.108;2024-03-22T13:49:39;33.38;;;5.93;;
83688;SDS011;74527;43.224;0.108;2024-03-22T13:52:09;27.38;;;7.20;;
83688;SDS011;74527;43.224;0.108;2024-03-22T13:54:35;25.30;;;5.57;;
83688;SDS011;74527;43.224;0.108;2024-03-22T13:57:02;30.45;;;7.40;;
83688;SDS011;74527;43.224;0.108;2024-03-22T13:59:28;31.67;;;6.25;;
83688;SDS011;74527;43.224;0.108;2024-03-22T14:01:54;33.83;;;7.07;;
83688;SDS011;74527;43.224;0.108;2024-03-22T14:04:21;25.73;;;5.47;;
83688;SDS011;74527;43.224;0.108;2024-03-22T14:06:48;28.73;;;5.20;;
83688;SDS011;74527;43.224;0.108;2024-03-22T14:09:14;41.83;;;6.70;;
83688;SDS011;74527;43.224;0.108;2024-03-22T14:11:40;30.85;;;6.75;;
83688;SDS011;74527;43.224;0.108;2024-03-22T14:14:08;20.70;;;5.35;;
83688;SDS011;74527;43.224;0.108;2024-03-22T14:16:36;31.52;;;7.25;;
83688;SDS011;74527;43.224;0.108;2024-03-22T14:19:03;31.70;;;5.40;;
83688;SDS011;74527;43.224;0.108;2024-03-22T14:21:29;38.30;;;6.75;;
83688;SDS011;74527;43.224;0.108;2024-03-22T14:23:55;26.00;;;5.72;;
83688;SDS011;74527;43.224;0.108;2024-03-22T14:26:21;31.90;;;6.88;;
83688;SDS011;74527;43.224;0.108;2024-03-22T14:28:49;26.73;;;6.20;;
83688;SDS011;74527;43.224;0.108;2024-03-22T14:31:16;38.33;;;6.40;;